Time;durP1;ratioP1;P1;durP2;ratioP2;P2;SDS_P1;SDS_P2;PMS_P1;PMS_P2;Temp;Humidity;BMP_temperature;BMP_pressure;BME280_temperature;BME280_humidity;BME280_pressure;Samples;Min_cycle;Max_cycle;Signal;HPM_P1;HPM_P2
2023/04/08 00:02:10;;;;;;;19.77;11.02;;;;;;;;;;4947589;28;20050;-80
2023/04/08 00:04:37;;;;;;;21.90;11.00;;;;;;;;;;4925159;29;20216;-80
2023/04/08 00:07:05;;;;;;;17.45;11.20;;;;;;;;;;4955247;28;20047;-81
2023/04/08 00:09:32;;;;;;;19.85;11.20;;;;;;;;;;4944374;29;20058;-80
2023/04/08 00:12:00;;;;;;;24.42;12.10;;;;;;;;;;4960492;28;20577;-81
2023/04/08 00:14:27;;;;;;;17.90;10.60;;;;;;;;;;4959560;28;20055;-82
2023/04/08 00:16:54;;;;;;;18.80;10.65;;;;;;;;;;4959570;28;20086;-81
2023/04/08 00:19:22;;;;;;;17.17;10.48;;;;;;;;;;4954719;28;20454;-80
2023/04/08 00:21:50;;;;;;;18.52;10.45;;;;;;;;;;4958382;28;20061;-80
2023/04/08 00:24:17;;;;;;;17.73;10.02;;;;;;;;;;4958387;28;20082;-81
2023/04/08 00:26:44;;;;;;;18.30;10.52;;;;;;;;;;4952613;28;20051;-80
2023/04/08 00:29:12;;;;;;;15.93;9.38;;;;;;;;;;4955607;28;20106;-79
2023/04/08 00:31:52;;;;;;;17.70;10.95;;;;;;;;;;4966420;23;20047;-86
2023/04/08 00:35:34;;;;;;;17.42;10.25;;;;;;;;;;4929583;29;20051;-86
2023/04/08 00:38:43;;;;;;;16.55;11.00;;;;;;;;;;4931445;29;20058;-86
2023/04/08 00:42:06;;;;;;;;;;;;;;;;;;;;;
2023/04/08 00:45:42;;;;;;;20.52;10.95;;;;;;;;;;4844017;29;20542;-86
2023/04/08 00:49:16;;;;;;;18.58;10.65;;;;;;;;;;4851502;29;20057;-86
2023/04/08 00:53:24;;;;;;;;;;;;;;;;;;;;;
2023/04/08 00:57:03;;;;;;;15.70;9.30;;;;;;;;;;4853025;29;20049;-86
2023/04/08 01:00:23;;;;;;;13.75;9.50;;;;;;;;;;4830626;29;20034;-86
2023/04/08 01:03:47;;;;;;;16.05;9.23;;;;;;;;;;4853251;29;20050;-86
2023/04/08 01:10:33;;;;;;;14.52;9.57;;;;;;;;;;4832701;29;20046;-86
2023/04/08 01:13:32;;;;;;;13.38;9.18;;;;;;;;;;4836373;29;20048;-86
2023/04/08 01:16:53;;;;;;;;;;;;;;;;;;;;;
2023/04/08 01:20:49;;;;;;;13.90;8.48;;;;;;;;;;4831120;29;20064;-85
2023/04/08 01:24:17;;;;;;;;;;;;;;;;;;4948685;28;20543;-85
2023/04/08 01:28:26;;;;;;;10.80;8.00;;;;;;;;;;4873516;29;20344;-85
2023/04/08 01:32:01;;;;;;;13.70;8.18;;;;;;;;;;4948237;28;20053;-85
2023/04/08 01:35:51;;;;;;;12.50;7.72;;;;;;;;;;4922697;28;20051;-85
2023/04/08 01:42:47;;;;;;;14.60;8.63;;;;;;;;;;4942508;28;20047;-85
2023/04/08 01:46:24;;;;;;;12.23;6.90;;;;;;;;;;4947618;28;20054;-85
2023/04/08 01:49:52;;;;;;;10.23;7.85;;;;;;;;;;4946611;28;20689;-85
2023/04/08 01:53:18;;;;;;;14.32;8.02;;;;;;;;;;4934062;28;20047;-85
2023/04/08 01:56:34;;;;;;;12.18;8.00;;;;;;;;;;4949529;28;20027;-86
2023/04/08 02:03:47;;;;;;;;;;;;;;;;;;;;;
2023/04/08 02:07:36;;;;;;;9.48;7.38;;;;;;;;;;4849856;29;20052;-86
2023/04/08 02:11:24;;;;;;;10.65;7.18;;;;;;;;;;4946139;28;20390;-85
2023/04/08 02:14:34;;;;;;;10.68;7.38;;;;;;;;;;4931074;28;20081;-86
2023/04/08 02:18:17;;;;;;;9.27;7.50;;;;;;;;;;4946831;28;20047;-85
2023/04/08 02:21:31;;;;;;;9.45;7.07;;;;;;;;;;4946418;28;20248;-85
2023/04/08 02:32:03;;;;;;;;;;;;;;;;;;4956958;28;19950;-85
2023/04/08 02:35:40;;;;;;;8.65;7.05;;;;;;;;;;4957326;28;19926;-85
2023/04/08 02:38:53;;;;;;;8.80;7.32;;;;;;;;;;4955577;29;20046;-85
2023/04/08 02:42:33;;;;;;;12.68;8.38;;;;;;;;;;4919550;29;20086;-86
2023/04/08 02:46:19;;;;;;;9.52;7.55;;;;;;;;;;4947081;28;20024;-86
2023/04/08 02:49:54;;;;;;;12.00;7.38;;;;;;;;;;4926406;28;20533;-86
2023/04/08 02:53:22;;;;;;;7.72;6.93;;;;;;;;;;4940234;28;20043;-87
2023/04/08 02:57:20;;;;;;;8.85;6.80;;;;;;;;;;4938598;28;20046;-86
2023/04/08 03:04:37;;;;;;;9.80;7.90;;;;;;;;;;4873892;29;20545;-86
2023/04/08 03:08:08;;;;;;;10.15;7.70;;;;;;;;;;4879123;29;20641;-86
2023/04/08 03:11:27;;;;;;;10.98;8.10;;;;;;;;;;4883738;29;20047;-86
2023/04/08 03:14:46;;;;;;;10.05;8.20;;;;;;;;;;4891949;29;20116;-86
2023/04/08 03:21:42;;;;;;;9.52;7.93;;;;;;;;;;4864853;29;20064;-86
2023/04/08 03:25:14;;;;;;;;;;;;;;;;;;;;;
2023/04/08 03:27:57;;;;;;;9.68;8.13;;;;;;;;;;4874543;29;20056;-86
2023/04/08 03:31:21;;;;;;;14.15;8.02;;;;;;;;;;4863177;29;20061;-86
2023/04/08 03:34:35;;;;;;;8.98;7.35;;;;;;;;;;4888605;28;20115;-86
2023/04/08 03:38:20;;;;;;;11.30;9.18;;;;;;;;;;4924998;29;20110;-86
2023/04/08 03:45:32;;;;;;;12.45;9.43;;;;;;;;;;4954779;28;20050;-84
2023/04/08 03:48:26;;;;;;;10.38;9.10;;;;;;;;;;4965484;28;20055;-85
2023/04/08 03:52:07;;;;;;;12.40;8.15;;;;;;;;;;4978312;28;20054;-85
2023/04/08 03:55:04;;;;;;;9.73;8.05;;;;;;;;;;4955680;28;20055;-85
2023/04/08 03:58:27;;;;;;;9.80;8.13;;;;;;;;;;4896539;29;20112;-85
2023/04/08 04:06:22;;;;;;;12.70;8.50;;;;;;;;;;4880392;29;20649;-85
2023/04/08 04:09:32;;;;;;;11.27;8.27;;;;;;;;;;4882664;29;20085;-85
2023/04/08 04:13:10;;;;;;;13.55;8.13;;;;;;;;;;4879254;29;20085;-85
2023/04/08 04:20:47;;;;;;;8.55;7.70;;;;;;;;;;4865529;29;20052;-86
2023/04/08 04:24:13;;;;;;;9.27;8.18;;;;;;;;;;4844629;29;20122;-85
2023/04/08 04:27:03;;;;;;;12.52;8.73;;;;;;;;;;4887969;29;20068;-85
2023/04/08 04:31:21;;;;;;;9.93;7.80;;;;;;;;;;4965576;28;20094;-85
2023/04/08 04:35:02;;;;;;;10.90;8.20;;;;;;;;;;4886217;29;20050;-86
2023/04/08 04:38:31;;;;;;;9.73;8.32;;;;;;;;;;4883708;29;20029;-85
2023/04/08 04:45:25;;;;;;;10.75;7.68;;;;;;;;;;4860693;29;20084;-86
2023/04/08 04:48:36;;;;;;;8.07;6.82;;;;;;;;;;4859383;29;20570;-86
2023/04/08 04:52:35;;;;;;;9.68;7.00;;;;;;;;;;4871286;29;20101;-88
2023/04/08 04:55:44;;;;;;;10.55;7.28;;;;;;;;;;4872080;29;20041;-86
2023/04/08 04:59:07;;;;;;;10.63;7.90;;;;;;;;;;4864277;29;20084;-86
2023/04/08 05:02:43;;;;;;;11.60;8.52;;;;;;;;;;4871114;29;20537;-87
2023/04/08 05:28:32;;;;;;;;;;;;;;;;;;;;;
2023/04/08 05:41:15;;;;;;;5.32;4.50;;;;;;;;;;4755911;23;20059;-80
2023/04/08 05:43:43;;;;;;;7.78;5.10;;;;;;;;;;4926372;29;20054;-79
2023/04/08 05:46:10;;;;;;;5.68;4.95;;;;;;;;;;4912167;29;20409;-79
2023/04/08 05:48:37;;;;;;;9.48;5.70;;;;;;;;;;4928547;29;20052;-79
2023/04/08 05:51:05;;;;;;;5.95;5.43;;;;;;;;;;4902047;29;20052;-77
2023/04/08 05:53:32;;;;;;;5.30;4.22;;;;;;;;;;4924907;29;20082;-78
2023/04/08 05:56:00;;;;;;;5.15;4.65;;;;;;;;;;4922969;29;20409;-79
2023/04/08 05:58:27;;;;;;;5.93;4.88;;;;;;;;;;4928664;29;20462;-80
2023/04/08 06:00:55;;;;;;;9.35;5.65;;;;;;;;;;4924326;29;20056;-78
2023/04/08 06:03:22;;;;;;;7.35;6.00;;;;;;;;;;4927129;29;20055;-79
2023/04/08 06:05:50;;;;;;;6.00;4.82;;;;;;;;;;4928398;29;20055;-80
2023/04/08 06:08:17;;;;;;;7.07;5.05;;;;;;;;;;4909415;29;20135;-81
2023/04/08 06:10:49;;;;;;;5.70;5.13;;;;;;;;;;4926325;29;20055;-78
2023/04/08 06:13:17;;;;;;;8.05;6.45;;;;;;;;;;4926091;29;20040;-82
2023/04/08 06:15:50;;;;;;;7.15;6.45;;;;;;;;;;4927375;29;20052;-81
2023/04/08 06:18:17;;;;;;;6.28;5.10;;;;;;;;;;4918359;29;20285;-82
2023/04/08 06:20:45;;;;;;;6.03;5.43;;;;;;;;;;4905599;29;20050;-81
2023/04/08 06:23:13;;;;;;;8.80;6.18;;;;;;;;;;4927307;29;20082;-78
2023/04/08 06:25:40;;;;;;;6.15;5.53;;;;;;;;;;4915957;29;20143;-78
2023/04/08 06:28:08;;;;;;;7.28;6.22;;;;;;;;;;4920543;29;20078;-79
2023/04/08 06:30:35;;;;;;;7.40;5.82;;;;;;;;;;4893957;29;20079;-80
2023/04/08 06:33:03;;;;;;;7.70;5.82;;;;;;;;;;4922650;29;20075;-78
2023/04/08 06:35:30;;;;;;;5.78;5.28;;;;;;;;;;4907801;29;20114;-78
2023/04/08 06:37:59;;;;;;;7.22;5.57;;;;;;;;;;4908522;29;20062;-79
2023/04/08 06:40:26;;;;;;;7.55;5.90;;;;;;;;;;4927155;29;20502;-79
2023/04/08 06:42:54;;;;;;;6.80;5.50;;;;;;;;;;4927876;29;20048;-79
2023/04/08 06:45:33;;;;;;;6.53;5.38;;;;;;;;;;4905158;29;20071;-79
2023/04/08 06:48:01;;;;;;;6.72;5.40;;;;;;;;;;4922586;29;20082;-78
2023/04/08 06:50:29;;;;;;;6.13;5.45;;;;;;;;;;4914434;29;20063;-81
2023/04/08 06:53:00;;;;;;;8.00;6.28;;;;;;;;;;4938559;29;20479;-82
2023/04/08 06:55:27;;;;;;;6.25;5.40;;;;;;;;;;4912484;29;20508;-81
2023/04/08 06:57:55;;;;;;;8.70;5.78;;;;;;;;;;4923089;29;20067;-78
2023/04/08 07:00:22;;;;;;;10.00;6.60;;;;;;;;;;4924112;29;20061;-81
2023/04/08 07:02:50;;;;;;;8.90;6.38;;;;;;;;;;4924857;29;20395;-78
2023/04/08 07:05:18;;;;;;;12.60;11.30;;;;;;;;;;4924795;29;20047;-79
2023/04/08 07:07:45;;;;;;;8.98;7.50;;;;;;;;;;4924962;29;20068;-79
2023/04/08 07:10:13;;;;;;;8.50;7.00;;;;;;;;;;4924818;29;20044;-79
2023/04/08 07:12:40;;;;;;;12.45;11.27;;;;;;;;;;4922997;29;20050;-80
2023/04/08 07:15:08;;;;;;;9.40;6.90;;;;;;;;;;4925093;29;20048;-82
2023/04/08 07:17:35;;;;;;;8.13;7.07;;;;;;;;;;4927839;29;20126;-78
2023/04/08 07:20:03;;;;;;;8.50;6.80;;;;;;;;;;4926932;29;20044;-78
2023/04/08 07:22:30;;;;;;;13.10;10.82;;;;;;;;;;4913830;29;20043;-78
2023/04/08 07:24:58;;;;;;;9.60;7.43;;;;;;;;;;4930349;29;20162;-81
2023/04/08 07:27:25;;;;;;;9.68;7.25;;;;;;;;;;4929394;29;20151;-78
2023/04/08 07:29:53;;;;;;;10.45;6.82;;;;;;;;;;4931119;29;20079;-80
2023/04/08 07:32:21;;;;;;;48.75;30.50;;;;;;;;;;4932327;29;20051;-82
2023/04/08 07:34:49;;;;;;;9.60;7.70;;;;;;;;;;4927815;29;20060;-80
2023/04/08 07:37:17;;;;;;;8.65;7.63;;;;;;;;;;4927680;29;20062;-81
2023/04/08 07:39:44;;;;;;;10.30;7.95;;;;;;;;;;4930176;29;20060;-79
2023/04/08 07:42:11;;;;;;;8.50;7.30;;;;;;;;;;4931087;29;20155;-79
2023/04/08 07:44:39;;;;;;;9.90;7.22;;;;;;;;;;4929053;29;20055;-79
2023/04/08 07:47:06;;;;;;;7.55;6.78;;;;;;;;;;4930529;29;20050;-80
2023/04/08 07:49:35;;;;;;;8.95;7.97;;;;;;;;;;4929191;29;20059;-78
2023/04/08 07:52:05;;;;;;;7.15;6.45;;;;;;;;;;4929276;29;20047;-82
2023/04/08 07:54:33;;;;;;;9.38;8.02;;;;;;;;;;4929180;29;20134;-78
2023/04/08 07:57:01;;;;;;;6.85;6.05;;;;;;;;;;4928832;29;20040;-79
2023/04/08 07:59:29;;;;;;;9.95;8.13;;;;;;;;;;4911850;29;20751;-78
2023/04/08 08:01:57;;;;;;;11.00;8.02;;;;;;;;;;4941752;29;20051;-77
2023/04/08 08:04:24;;;;;;;10.48;9.10;;;;;;;;;;4932742;29;20059;-79
2023/04/08 08:06:52;;;;;;;7.65;5.88;;;;;;;;;;4935663;29;20052;-81
2023/04/08 08:09:20;;;;;;;10.02;8.75;;;;;;;;;;4910752;29;20066;-80
2023/04/08 08:11:47;;;;;;;11.13;8.75;;;;;;;;;;4904492;29;20051;-79
2023/04/08 08:14:15;;;;;;;10.15;8.55;;;;;;;;;;4934384;28;20095;-79
2023/04/08 08:16:43;;;;;;;11.68;9.65;;;;;;;;;;4940912;29;20145;-81
2023/04/08 08:19:12;;;;;;;14.25;9.60;;;;;;;;;;4946594;29;20054;-79
2023/04/08 08:21:40;;;;;;;8.75;7.35;;;;;;;;;;4931280;29;20044;-79
2023/04/08 08:24:08;;;;;;;13.73;10.68;;;;;;;;;;4931797;29;20062;-81
2023/04/08 08:26:35;;;;;;;12.88;10.45;;;;;;;;;;4916701;29;20039;-78
2023/04/08 08:29:03;;;;;;;11.98;9.20;;;;;;;;;;4930277;29;20347;-81
2023/04/08 08:31:31;;;;;;;13.30;9.93;;;;;;;;;;4933969;29;20303;-79
2023/04/08 08:34:00;;;;;;;32.90;29.85;;;;;;;;;;4950488;28;20126;-79
2023/04/08 08:36:27;;;;;;;12.18;10.85;;;;;;;;;;4943519;29;20059;-80
2023/04/08 08:38:56;;;;;;;12.65;9.98;;;;;;;;;;4930576;29;20286;-78
2023/04/08 08:41:24;;;;;;;12.20;10.32;;;;;;;;;;4929723;29;20643;-78
2023/04/08 08:43:52;;;;;;;18.85;16.23;;;;;;;;;;4913854;29;20051;-80
2023/04/08 08:46:20;;;;;;;12.40;9.98;;;;;;;;;;4927762;29;20059;-78
2023/04/08 08:48:47;;;;;;;13.70;11.13;;;;;;;;;;4917750;29;20055;-80
2023/04/08 08:51:15;;;;;;;14.50;11.25;;;;;;;;;;4906953;29;20079;-79
2023/04/08 08:53:44;;;;;;;15.05;11.75;;;;;;;;;;4915567;29;20474;-81
2023/04/08 08:56:11;;;;;;;15.88;11.75;;;;;;;;;;4929764;29;20063;-78
2023/04/08 08:58:46;;;;;;;11.68;9.18;;;;;;;;;;4929930;29;20131;-80
2023/04/08 09:01:33;;;;;;;20.35;18.33;;;;;;;;;;4930168;29;20058;-78
2023/04/08 09:04:10;;;;;;;89.38;80.60;;;;;;;;;;4924452;29;20051;-78
2023/04/08 09:06:38;;;;;;;11.65;9.50;;;;;;;;;;4923838;29;20067;-80
2023/04/08 09:09:09;;;;;;;15.13;11.32;;;;;;;;;;4919446;29;20063;-79
2023/04/08 09:11:40;;;;;;;35.22;22.92;;;;;;;;;;4911790;29;20043;-80
2023/04/08 09:14:17;;;;;;;15.15;12.02;;;;;;;;;;4924831;29;20043;-81
2023/04/08 09:16:45;;;;;;;13.90;11.95;;;;;;;;;;4908207;29;20518;-82
2023/04/08 09:19:12;;;;;;;15.88;11.80;;;;;;;;;;4929060;29;20051;-79
2023/04/08 09:21:40;;;;;;;10.77;9.27;;;;;;;;;;4925336;29;20040;-79
2023/04/08 09:24:08;;;;;;;12.18;9.82;;;;;;;;;;4919708;29;20078;-80
2023/04/08 09:26:36;;;;;;;12.57;10.00;;;;;;;;;;4925289;29;20057;-79
2023/04/08 09:29:05;;;;;;;15.38;12.43;;;;;;;;;;4927226;29;20056;-80
2023/04/08 09:31:58;;;;;;;16.20;13.60;;;;;;;;;;4926223;29;20134;-78
2023/04/08 09:34:26;;;;;;;12.90;11.60;;;;;;;;;;4925634;29;20139;-82
2023/04/08 09:36:55;;;;;;;14.68;12.32;;;;;;;;;;4926672;29;20576;-81
2023/04/08 09:39:23;;;;;;;14.05;12.65;;;;;;;;;;4907679;29;20063;-79
2023/04/08 09:41:51;;;;;;;15.13;12.27;;;;;;;;;;4926915;29;20047;-79
2023/04/08 09:44:20;;;;;;;13.02;11.40;;;;;;;;;;4921263;29;20190;-80
2023/04/08 09:46:51;;;;;;;15.85;12.85;;;;;;;;;;4918492;29;20090;-80
2023/04/08 09:49:42;;;;;;;15.38;12.93;;;;;;;;;;4922968;29;20071;-80
2023/04/08 09:52:12;;;;;;;15.25;13.20;;;;;;;;;;4904615;29;20361;-79
2023/04/08 09:54:40;;;;;;;18.15;13.27;;;;;;;;;;4922534;29;20044;-79
2023/04/08 09:57:15;;;;;;;20.02;17.73;;;;;;;;;;4922323;29;20498;-79
2023/04/08 09:59:47;;;;;;;15.40;12.75;;;;;;;;;;4921691;29;20426;-80
2023/04/08 10:02:16;;;;;;;15.32;13.45;;;;;;;;;;4922261;29;20550;-80
2023/04/08 10:04:45;;;;;;;15.13;13.55;;;;;;;;;;4893753;29;20054;-80
2023/04/08 10:07:13;;;;;;;13.50;10.82;;;;;;;;;;4924936;29;20078;-81
2023/04/08 10:09:42;;;;;;;13.70;11.45;;;;;;;;;;4926498;29;20047;-79
2023/04/08 10:12:10;;;;;;;13.55;10.77;;;;;;;;;;4903450;29;20142;-81
2023/04/08 10:14:38;;;;;;;14.52;12.45;;;;;;;;;;4920362;29;20127;-78
2023/04/08 10:17:25;;;;;;;18.52;14.77;;;;;;;;;;4905397;29;20048;-79
2023/04/08 10:19:52;;;;;;;15.45;13.10;;;;;;;;;;4919323;29;20466;-81
2023/04/08 10:22:47;;;;;;;15.40;13.88;;;;;;;;;;4922741;29;20039;-79
2023/04/08 10:25:15;;;;;;;13.95;10.82;;;;;;;;;;4920411;29;20051;-80
2023/04/08 10:27:43;;;;;;;13.73;11.45;;;;;;;;;;4919632;29;20581;-80
2023/04/08 10:30:25;;;;;;;17.15;14.52;;;;;;;;;;4917087;29;20044;-80
2023/04/08 10:33:00;;;;;;;20.42;17.38;;;;;;;;;;4920305;29;20059;-79
2023/04/08 10:35:32;;;;;;;16.90;15.10;;;;;;;;;;4917522;29;20052;-82
2023/04/08 10:37:59;;;;;;;17.05;14.10;;;;;;;;;;4925934;29;20040;-79
2023/04/08 10:40:27;;;;;;;19.60;15.10;;;;;;;;;;4904681;29;20051;-80
2023/04/08 10:42:55;;;;;;;24.77;15.10;;;;;;;;;;4907256;29;20099;-79
2023/04/08 10:45:23;;;;;;;17.13;14.68;;;;;;;;;;4923133;29;20188;-79
2023/04/08 10:47:50;;;;;;;24.40;14.85;;;;;;;;;;4910741;29;20077;-78
2023/04/08 10:50:22;;;;;;;19.35;15.13;;;;;;;;;;4925156;29;20054;-79
2023/04/08 10:52:54;;;;;;;19.95;14.52;;;;;;;;;;4929754;29;20044;-79
2023/04/08 10:55:22;;;;;;;22.55;17.38;;;;;;;;;;4924115;29;20044;-81
2023/04/08 10:57:50;;;;;;;45.72;16.20;;;;;;;;;;4912754;29;20051;-78
2023/04/08 11:00:19;;;;;;;31.77;15.90;;;;;;;;;;4921784;29;20044;-81
2023/04/08 11:02:46;;;;;;;34.88;19.20;;;;;;;;;;4922646;29;20058;-79
2023/04/08 11:05:15;;;;;;;39.97;16.33;;;;;;;;;;4907068;29;20864;-78
2023/04/08 11:07:43;;;;;;;23.33;15.98;;;;;;;;;;4926082;29;20058;-80
2023/04/08 11:10:10;;;;;;;24.00;16.00;;;;;;;;;;4920882;29;20055;-81
2023/04/08 11:12:39;;;;;;;16.80;13.95;;;;;;;;;;4932270;29;20047;-79
2023/04/08 11:15:08;;;;;;;35.65;17.50;;;;;;;;;;4915449;29;20060;-78
2023/04/08 11:17:36;;;;;;;30.50;15.73;;;;;;;;;;4926107;29;20103;-79
2023/04/08 11:20:05;;;;;;;43.92;21.70;;;;;;;;;;4928224;29;20451;-77
2023/04/08 11:22:33;;;;;;;15.82;13.30;;;;;;;;;;4927764;29;20039;-79
2023/04/08 11:25:01;;;;;;;39.38;16.92;;;;;;;;;;4927083;29;20664;-79
2023/04/08 11:27:29;;;;;;;21.75;15.77;;;;;;;;;;4928273;29;20052;-79
2023/04/08 11:29:57;;;;;;;23.13;16.23;;;;;;;;;;4928751;29;20052;-78
2023/04/08 11:32:27;;;;;;;24.90;16.80;;;;;;;;;;4922617;29;20682;-79
2023/04/08 11:34:55;;;;;;;43.95;17.85;;;;;;;;;;4920162;29;20079;-80
2023/04/08 11:37:25;;;;;;;27.67;16.23;;;;;;;;;;4915930;29;20158;-77
2023/04/08 11:39:55;;;;;;;29.30;15.23;;;;;;;;;;4914758;29;20120;-77
2023/04/08 11:42:27;;;;;;;36.63;15.52;;;;;;;;;;4917732;29;20048;-78
2023/04/08 11:44:54;;;;;;;18.77;13.55;;;;;;;;;;4920187;29;20067;-77
2023/04/08 11:47:21;;;;;;;17.65;13.30;;;;;;;;;;4925450;29;20059;-77
2023/04/08 11:49:49;;;;;;;22.48;14.55;;;;;;;;;;4922901;29;20059;-78
2023/04/08 11:52:17;;;;;;;24.48;14.77;;;;;;;;;;4920070;29;20513;-77
2023/04/08 11:54:45;;;;;;;30.50;14.60;;;;;;;;;;4918783;29;20056;-77
2023/04/08 11:57:14;;;;;;;21.00;12.77;;;;;;;;;;4908343;29;20054;-77
2023/04/08 11:59:41;;;;;;;19.50;14.45;;;;;;;;;;4912604;29;20039;-77
2023/04/08 12:02:09;;;;;;;34.70;16.33;;;;;;;;;;4921369;29;20067;-77
2023/04/08 12:04:36;;;;;;;20.77;16.17;;;;;;;;;;4904090;29;20047;-77
2023/04/08 12:07:04;;;;;;;22.90;15.18;;;;;;;;;;4902755;29;20059;-76
2023/04/08 12:09:34;;;;;;;29.33;16.23;;;;;;;;;;4925762;29;20054;-77
2023/04/08 12:12:02;;;;;;;18.55;15.82;;;;;;;;;;4926441;29;20056;-77
2023/04/08 12:14:29;;;;;;;18.30;15.52;;;;;;;;;;4931764;29;20058;-77
2023/04/08 12:16:57;;;;;;;17.40;15.60;;;;;;;;;;4920948;29;20768;-78
2023/04/08 12:19:25;;;;;;;17.58;15.23;;;;;;;;;;4925610;29;20036;-78
2023/04/08 12:21:53;;;;;;;21.20;15.85;;;;;;;;;;4925715;29;20503;-78
2023/04/08 12:24:21;;;;;;;17.70;14.77;;;;;;;;;;4921294;29;20111;-78
2023/04/08 12:26:49;;;;;;;16.70;14.40;;;;;;;;;;4927473;29;20506;-78
2023/04/08 12:29:17;;;;;;;16.00;14.23;;;;;;;;;;4926754;29;20474;-78
2023/04/08 12:31:44;;;;;;;17.02;13.32;;;;;;;;;;4940804;23;20626;-83
2023/04/08 12:34:12;;;;;;;18.10;13.75;;;;;;;;;;4933429;29;20047;-81
2023/04/08 12:36:40;;;;;;;16.10;13.90;;;;;;;;;;4937275;29;20051;-81
2023/04/08 12:39:08;;;;;;;15.00;13.13;;;;;;;;;;4941046;29;20135;-81
2023/04/08 12:41:35;;;;;;;15.52;12.88;;;;;;;;;;4942816;29;20055;-82
2023/04/08 12:44:03;;;;;;;17.83;14.80;;;;;;;;;;4941897;29;20043;-82
2023/04/08 12:46:30;;;;;;;15.73;13.20;;;;;;;;;;4922434;29;20666;-81
2023/04/08 12:48:58;;;;;;;16.45;12.40;;;;;;;;;;4936814;29;20103;-82
2023/04/08 12:51:31;;;;;;;15.05;13.27;;;;;;;;;;4940235;29;20043;-82
2023/04/08 12:54:00;;;;;;;15.40;12.55;;;;;;;;;;4940785;29;20044;-81
2023/04/08 12:56:27;;;;;;;16.77;13.48;;;;;;;;;;4922936;29;20052;-84
2023/04/08 12:58:56;;;;;;;15.98;13.63;;;;;;;;;;4924607;29;20456;-82
2023/04/08 13:01:24;;;;;;;18.17;13.55;;;;;;;;;;4938740;29;20051;-83
2023/04/08 13:03:54;;;;;;;15.32;13.73;;;;;;;;;;4921382;29;20047;-82
2023/04/08 13:06:21;;;;;;;17.67;13.45;;;;;;;;;;4938731;29;20071;-82
2023/04/08 13:08:49;;;;;;;13.77;11.98;;;;;;;;;;4917425;29;20095;-83
2023/04/08 13:11:17;;;;;;;14.18;12.77;;;;;;;;;;4920439;29;20429;-83
2023/04/08 13:13:45;;;;;;;16.45;12.30;;;;;;;;;;4945903;29;20139;-82
2023/04/08 13:16:14;;;;;;;13.35;11.98;;;;;;;;;;4940102;29;20139;-82
2023/04/08 13:18:45;;;;;;;14.43;11.43;;;;;;;;;;4924461;29;20063;-83
2023/04/08 13:21:37;;;;;;;14.20;11.85;;;;;;;;;;4939746;29;20047;-81
2023/04/08 13:24:05;;;;;;;14.68;12.57;;;;;;;;;;4952205;29;20051;-82
2023/04/08 13:26:33;;;;;;;16.40;11.45;;;;;;;;;;4941888;29;20051;-82
2023/04/08 13:29:00;;;;;;;13.82;11.90;;;;;;;;;;4936031;29;20043;-82
2023/04/08 13:31:28;;;;;;;16.65;11.88;;;;;;;;;;4910410;29;20059;-83
2023/04/08 13:33:56;;;;;;;11.73;10.02;;;;;;;;;;4928987;29;20531;-83
2023/04/08 13:36:27;;;;;;;10.00;9.07;;;;;;;;;;4923142;29;20044;-83
2023/04/08 13:38:55;;;;;;;7.03;6.32;;;;;;;;;;4926445;29;20043;-83
2023/04/08 13:41:24;;;;;;;7.63;6.85;;;;;;;;;;4919536;29;20562;-83
2023/04/08 13:43:52;;;;;;;6.50;5.82;;;;;;;;;;4937394;28;20132;-81
2023/04/08 13:46:20;;;;;;;15.02;13.43;;;;;;;;;;4952259;29;20043;-81
2023/04/08 13:48:47;;;;;;;6.32;5.82;;;;;;;;;;4957197;29;20047;-82
2023/04/08 13:51:15;;;;;;;5.32;4.82;;;;;;;;;;4940172;29;20439;-83
2023/04/08 13:53:43;;;;;;;5.35;4.85;;;;;;;;;;4912601;29;20490;-82
2023/04/08 13:56:10;;;;;;;4.65;4.25;;;;;;;;;;4920456;29;20040;-82
2023/04/08 13:58:37;;;;;;;4.45;4.05;;;;;;;;;;4909238;29;20111;-83
2023/04/08 14:01:05;;;;;;;4.57;4.18;;;;;;;;;;4924991;29;20075;-82
2023/04/08 14:03:33;;;;;;;6.30;5.60;;;;;;;;;;4925166;29;20044;-84
2023/04/08 14:06:00;;;;;;;4.57;4.15;;;;;;;;;;4903840;29;20779;-82
2023/04/08 14:08:28;;;;;;;4.65;4.22;;;;;;;;;;4917418;29;20052;-83
2023/04/08 14:10:56;;;;;;;4.72;4.30;;;;;;;;;;4913931;29;20055;-82
2023/04/08 14:13:24;;;;;;;4.47;4.07;;;;;;;;;;4900583;29;20054;-82
2023/04/08 14:15:53;;;;;;;6.93;4.63;;;;;;;;;;4926229;29;20058;-82
2023/04/08 14:18:23;;;;;;;8.05;4.75;;;;;;;;;;4929327;29;20052;-82
2023/04/08 14:20:50;;;;;;;4.78;4.38;;;;;;;;;;4913504;29;20051;-82
2023/04/08 14:23:17;;;;;;;3.97;3.67;;;;;;;;;;4931047;29;20051;-82
2023/04/08 14:25:45;;;;;;;4.82;4.43;;;;;;;;;;4933614;29;20051;-82
2023/04/08 14:28:13;;;;;;;4.75;4.35;;;;;;;;;;4934444;29;20052;-82
2023/04/08 14:30:40;;;;;;;6.30;5.38;;;;;;;;;;4933357;29;20071;-82
2023/04/08 14:33:08;;;;;;;6.72;6.10;;;;;;;;;;4928580;29;20329;-82
2023/04/08 14:35:36;;;;;;;8.60;4.93;;;;;;;;;;4922311;29;20043;-82
2023/04/08 14:38:04;;;;;;;5.97;5.38;;;;;;;;;;4923643;29;20463;-83
2023/04/08 14:40:32;;;;;;;8.00;7.20;;;;;;;;;;4929869;29;20066;-81
2023/04/08 14:43:00;;;;;;;8.40;4.60;;;;;;;;;;4929329;29;20533;-81
2023/04/08 14:45:27;;;;;;;4.78;4.47;;;;;;;;;;4924752;29;20055;-82
2023/04/08 14:47:55;;;;;;;5.10;4.70;;;;;;;;;;4905756;29;20654;-83
2023/04/08 14:50:23;;;;;;;6.43;5.38;;;;;;;;;;4923045;29;20074;-83
2023/04/08 14:52:50;;;;;;;5.43;4.93;;;;;;;;;;4922245;29;20059;-82
2023/04/08 14:55:21;;;;;;;6.00;4.40;;;;;;;;;;4926268;29;20081;-83
2023/04/08 14:57:48;;;;;;;5.28;4.78;;;;;;;;;;4907458;29;20048;-82
2023/04/08 15:00:16;;;;;;;5.15;4.65;;;;;;;;;;4926200;29;20052;-83
2023/04/08 15:02:43;;;;;;;3.88;3.58;;;;;;;;;;4916772;29;20083;-83
2023/04/08 15:05:11;;;;;;;6.25;3.95;;;;;;;;;;4929881;29;20048;-82
2023/04/08 15:07:39;;;;;;;6.95;3.95;;;;;;;;;;4914894;29;20321;-82
2023/04/08 15:10:06;;;;;;;4.20;3.80;;;;;;;;;;4912762;29;20745;-82
2023/04/08 15:12:35;;;;;;;3.75;3.45;;;;;;;;;;4913796;29;20054;-81
2023/04/08 15:15:03;;;;;;;3.67;3.38;;;;;;;;;;4930546;29;20151;-81
2023/04/08 15:17:31;;;;;;;3.75;3.45;;;;;;;;;;4928575;29;20066;-81
2023/04/08 15:19:58;;;;;;;3.83;3.53;;;;;;;;;;4927194;29;20490;-81
2023/04/08 15:22:26;;;;;;;4.10;3.70;;;;;;;;;;4918519;29;20059;-83
2023/04/08 15:24:53;;;;;;;4.97;3.70;;;;;;;;;;4923250;29;20130;-83
2023/04/08 15:27:21;;;;;;;3.60;3.30;;;;;;;;;;4929981;29;20048;-82
2023/04/08 15:29:49;;;;;;;3.03;2.83;;;;;;;;;;4938344;29;20399;-82
2023/04/08 15:32:16;;;;;;;3.70;3.33;;;;;;;;;;4931482;29;20114;-82
2023/04/08 15:34:44;;;;;;;4.15;3.22;;;;;;;;;;4915383;29;20065;-82
2023/04/08 15:37:11;;;;;;;8.40;2.95;;;;;;;;;;4916699;29;20387;-82
2023/04/08 15:39:40;;;;;;;3.60;3.30;;;;;;;;;;4936420;29;20083;-82
2023/04/08 15:42:08;;;;;;;3.00;2.80;;;;;;;;;;4929372;29;20047;-82
2023/04/08 15:44:35;;;;;;;3.08;2.88;;;;;;;;;;4933277;29;20130;-82
2023/04/08 15:47:03;;;;;;;2.58;2.45;;;;;;;;;;4917845;29;20146;-82
2023/04/08 15:49:31;;;;;;;3.30;3.00;;;;;;;;;;4916750;29;20055;-82
2023/04/08 15:51:58;;;;;;;3.03;2.75;;;;;;;;;;4932095;29;20122;-83
2023/04/08 15:54:26;;;;;;;4.75;2.80;;;;;;;;;;4932668;29;20601;-82
2023/04/08 15:56:56;;;;;;;2.40;2.25;;;;;;;;;;4917035;29;20075;-82
2023/04/08 15:59:24;;;;;;;2.80;2.60;;;;;;;;;;4917302;29;20074;-82
2023/04/08 16:01:51;;;;;;;2.70;2.50;;;;;;;;;;4935460;29;20047;-82
2023/04/08 16:04:19;;;;;;;4.60;3.10;;;;;;;;;;4938076;29;20058;-82
2023/04/08 16:06:46;;;;;;;2.72;2.53;;;;;;;;;;4919267;29;20055;-82
2023/04/08 16:09:15;;;;;;;2.92;2.72;;;;;;;;;;4918393;29;20044;-82
2023/04/08 16:11:43;;;;;;;2.60;2.40;;;;;;;;;;4933953;29;20087;-82
2023/04/08 16:14:11;;;;;;;2.70;2.50;;;;;;;;;;4939273;29;20097;-82
2023/04/08 16:16:38;;;;;;;8.82;2.53;;;;;;;;;;4921079;29;20044;-83
2023/04/08 16:19:06;;;;;;;2.63;2.45;;;;;;;;;;4937787;29;20071;-81
2023/04/08 16:21:33;;;;;;;2.80;2.60;;;;;;;;;;4919353;29;20047;-82
2023/04/08 16:24:01;;;;;;;5.20;4.43;;;;;;;;;;4940134;29;20075;-81
2023/04/08 16:26:28;;;;;;;3.05;2.85;;;;;;;;;;4936830;29;20047;-81
2023/04/08 16:28:56;;;;;;;3.00;2.80;;;;;;;;;;4942155;29;20066;-81
2023/04/08 16:31:24;;;;;;;3.35;3.08;;;;;;;;;;4939038;29;20044;-81
2023/04/08 16:33:52;;;;;;;3.33;3.03;;;;;;;;;;4922000;29;20647;-81
2023/04/08 16:36:20;;;;;;;9.98;7.75;;;;;;;;;;4944969;29;20103;-81
2023/04/08 16:38:48;;;;;;;3.10;2.90;;;;;;;;;;4943935;29;20075;-80
2023/04/08 16:41:15;;;;;;;3.30;3.00;;;;;;;;;;4922535;29;20047;-81
2023/04/08 16:43:43;;;;;;;4.60;2.92;;;;;;;;;;4906494;29;20050;-82
2023/04/08 16:46:19;;;;;;;5.97;2.83;;;;;;;;;;4933647;29;20056;-81
2023/04/08 16:48:46;;;;;;;3.25;3.05;;;;;;;;;;4928089;29;20498;-81
2023/04/08 16:51:14;;;;;;;5.13;3.05;;;;;;;;;;4937516;29;20052;-81
2023/04/08 16:53:41;;;;;;;3.13;2.53;;;;;;;;;;4920143;29;20106;-81
2023/04/08 16:56:13;;;;;;;4.15;3.78;;;;;;;;;;4917202;29;21841;-81
2023/04/08 16:58:40;;;;;;;;;;;;;;;;;;4934268;29;20180;-81
2023/04/08 17:01:09;;;;;;;3.20;3.00;;;;;;;;;;4916739;29;20005;-82
2023/04/08 17:03:39;;;;;;;4.10;3.50;;;;;;;;;;4930443;29;20040;-82
2023/04/08 17:06:10;;;;;;;3.50;2.92;;;;;;;;;;4915065;29;20442;-81
2023/04/08 17:08:39;;;;;;;3.53;3.33;;;;;;;;;;4918017;29;20090;-81